Time;durP1;ratioP1;P1;durP2;ratioP2;P2;SDS_P1;SDS_P2;PMS_P1;PMS_P2;Temp;Humidity;BMP_temperature;BMP_pressure;BME280_temperature;BME280_humidity;BME280_pressure;Samples;Min_cycle;Max_cycle;Signal;HPM_P1;HPM_P2
2022/09/02 00:00:08;;;;;;;4.20;2.80;;;;;;;11.38;72.65;98338.45;105425;1283;22708;-88
2022/09/02 00:02:56;;;;;;;4.10;2.70;;;;;;;11.37;72.47;98335.16;105398;1284;22592;-87
2022/09/02 00:05:24;;;;;;;4.80;3.00;;;;;;;11.35;72.26;98336.62;105389;1284;25357;-86
2022/09/02 00:07:54;;;;;;;4.10;2.80;;;;;;;11.35;72.28;98333.27;105350;1284;22562;-88
2022/09/02 00:10:22;;;;;;;4.60;2.80;;;;;;;11.34;72.27;98336.30;105448;1282;25522;-88
2022/09/02 00:12:50;;;;;;;5.60;2.80;;;;;;;11.35;72.14;98342.27;105348;1284;22647;-87
2022/09/02 00:15:18;;;;;;;6.80;3.60;;;;;;;11.35;72.06;98337.75;105394;1284;23098;-87
2022/09/02 00:17:47;;;;;;;4.70;3.60;;;;;;;11.35;72.23;98339.27;105399;1282;23759;-87
2022/09/02 00:20:17;;;;;;;6.10;3.30;;;;;;;11.33;72.13;98340.95;105389;1284;24155;-86
2022/09/02 00:22:46;;;;;;;3.80;2.40;;;;;;;11.31;72.26;98337.96;105306;1284;25711;-85
2022/09/02 00:25:14;;;;;;;2.80;2.40;;;;;;;11.27;72.59;98335.70;105331;1283;24224;-85
2022/09/02 00:27:42;;;;;;;2.60;2.40;;;;;;;11.24;72.35;98338.19;105211;1284;22552;-85
2022/09/02 00:30:11;;;;;;;5.20;2.60;;;;;;;11.21;72.19;98337.69;105322;1284;22908;-86
2022/09/02 00:32:40;;;;;;;6.50;4.20;;;;;;;11.21;72.20;98336.23;105370;1283;22703;-85
2022/09/02 00:35:09;;;;;;;6.30;4.30;;;;;;;11.17;72.18;98338.07;105347;1282;25244;-88
2022/09/02 00:37:37;;;;;;;6.80;4.90;;;;;;;11.09;72.41;98335.70;105365;1283;26621;-86
2022/09/02 00:40:06;;;;;;;6.30;4.30;;;;;;;11.03;72.36;98332.00;105431;1283;22617;-86
2022/09/02 00:42:34;;;;;;;6.60;4.30;;;;;;;10.99;72.59;98328.12;105311;1282;24251;-85
2022/09/02 00:45:05;;;;;;;7.10;4.60;;;;;;;10.94;72.47;98330.29;105355;1283;22554;-87
2022/09/02 00:47:34;;;;;;;6.70;5.20;;;;;;;10.88;72.34;98331.39;105422;1282;22868;-86
2022/09/02 00:50:08;;;;;;;6.20;3.90;;;;;;;10.81;72.35;98330.95;105240;1284;22664;-86
2022/09/02 00:52:47;;;;;;;;;;;;;;;10.76;72.65;98328.54;105264;1284;22693;-85
2022/09/02 00:55:33;;;;;;;5.80;4.90;;;;;;;10.68;72.44;98322.15;105359;1284;22540;-85
2022/09/02 00:58:07;;;;;;;7.00;5.30;;;;;;;10.63;72.88;98327.55;105381;1282;25529;-86
2022/09/02 01:00:41;;;;;;;8.70;5.60;;;;;;;10.58;72.90;98328.54;105398;1283;24330;-86
2022/09/02 01:03:14;;;;;;;8.00;5.70;;;;;;;10.52;72.88;98326.40;105391;1282;22556;-84
2022/09/02 01:05:46;;;;;;;9.80;5.40;;;;;;;10.43;73.00;98325.70;105172;1284;25356;-86
2022/09/02 01:08:20;;;;;;;10.10;5.40;;;;;;;10.36;72.77;98329.93;105477;1282;22621;-86
2022/09/02 01:10:48;;;;;;;8.50;4.70;;;;;;;10.27;72.96;98328.55;105309;1284;22577;-86
2022/09/02 01:13:20;;;;;;;6.80;5.20;;;;;;;10.20;72.98;98329.19;105366;1283;25293;-83
2022/09/02 01:15:57;;;;;;;6.90;5.60;;;;;;;10.17;73.93;98327.83;105368;1283;22827;-87
2022/09/02 01:18:29;;;;;;;6.40;5.00;;;;;;;9.98;75.70;98324.30;105377;1282;22775;-86
2022/09/02 01:20:59;;;;;;;5.80;4.50;;;;;;;9.75;75.56;98319.77;105368;1282;22763;-87
2022/09/02 01:23:28;;;;;;;5.70;4.00;;;;;;;9.62;74.78;98321.72;106574;1282;22672;-86
2022/09/02 01:26:04;;;;;;;5.50;4.40;;;;;;;9.60;75.22;98322.06;105416;1282;25380;-86
2022/09/02 01:28:34;;;;;;;6.60;4.60;;;;;;;9.62;75.13;98323.33;105399;1282;23959;-86
2022/09/02 01:31:02;;;;;;;5.10;4.00;;;;;;;9.54;75.19;98318.38;105537;1283;22632;-86
2022/09/02 01:33:30;;;;;;;6.10;3.90;;;;;;;9.41;75.56;98320.37;105363;1282;25421;-86
2022/09/02 01:35:59;;;;;;;6.70;3.80;;;;;;;9.35;75.60;98326.98;105320;1282;25436;-85
2022/09/02 01:38:28;;;;;;;6.00;3.70;;;;;;;9.31;75.31;98327.34;105354;1282;22685;-86
2022/09/02 01:40:57;;;;;;;8.50;3.70;;;;;;;9.29;75.57;98330.78;105344;1282;25444;-84
2022/09/02 01:43:27;;;;;;;5.40;3.30;;;;;;;9.27;76.72;98326.71;105308;1284;25368;-85
2022/09/02 01:45:57;;;;;;;5.10;3.10;;;;;;;9.20;77.25;98326.80;105324;1282;22569;-85
2022/09/02 01:48:27;;;;;;;4.80;3.30;;;;;;;9.14;76.46;98331.10;105365;1283;22703;-85
2022/09/02 01:51:01;;;;;;;3.70;3.30;;;;;;;9.11;76.25;98330.36;105349;1282;25435;-85
2022/09/02 01:53:30;;;;;;;4.80;3.20;;;;;;;9.07;76.14;98330.02;105400;1282;25458;-83
2022/09/02 01:55:59;;;;;;;5.60;3.20;;;;;;;9.03;76.03;98327.39;105396;1282;23940;-84
2022/09/02 01:58:29;;;;;;;3.90;3.20;;;;;;;9.02;75.96;98326.54;105388;1282;26580;-83
2022/09/02 02:00:57;;;;;;;5.10;3.50;;;;;;;8.99;76.38;98323.92;105414;1282;22626;-83
2022/09/02 02:03:26;;;;;;;4.30;2.80;;;;;;;8.96;76.37;98319.75;105346;1282;25380;-84
2022/09/02 02:05:57;;;;;;;7.30;3.40;;;;;;;8.90;76.30;98321.45;105380;1282;22603;-83
2022/09/02 02:08:25;;;;;;;3.80;2.90;;;;;;;8.80;77.12;98314.99;105400;1283;24467;-83
2022/09/02 02:10:53;;;;;;;3.70;2.90;;;;;;;8.67;77.34;98320.21;105331;1282;25416;-84
2022/09/02 02:13:23;;;;;;;5.20;2.80;;;;;;;8.57;78.26;98314.52;105638;1284;25372;-84
2022/09/02 02:15:52;;;;;;;5.70;2.70;;;;;;;8.49;77.78;98315.40;105545;1282;26621;-83
2022/09/02 02:18:20;;;;;;;4.40;2.80;;;;;;;8.47;77.64;98314.67;105346;1283;22674;-82
2022/09/02 02:20:48;;;;;;;4.80;3.10;;;;;;;8.47;77.76;98314.93;105347;1282;22730;-83
2022/09/02 02:23:17;;;;;;;3.70;2.90;;;;;;;8.43;77.97;98316.50;105374;1284;22762;-82
2022/09/02 02:25:45;;;;;;;5.10;3.00;;;;;;;8.41;79.13;98314.41;105376;1282;24228;-82
2022/09/02 02:28:13;;;;;;;5.30;2.70;;;;;;;8.30;78.39;98313.71;105096;1284;24351;-81
2022/09/02 02:30:42;;;;;;;5.00;2.70;;;;;;;8.28;78.59;98312.98;105386;1282;23238;-82
2022/09/02 02:33:10;;;;;;;3.60;2.80;;;;;;;8.19;79.56;98310.27;105347;1282;26726;-83
2022/09/02 02:35:39;;;;;;;3.70;2.80;;;;;;;8.05;79.71;98313.57;105415;1282;22868;-83
2022/09/02 02:38:08;;;;;;;3.60;3.20;;;;;;;7.94;79.86;98314.18;105391;1282;22585;-83
2022/09/02 02:40:41;;;;;;;4.50;3.10;;;;;;;7.90;81.18;98312.10;105362;1282;22624;-82
2022/09/02 02:43:09;;;;;;;6.20;3.20;;;;;;;7.91;81.60;98313.60;105414;1284;22546;-83
2022/09/02 02:45:38;;;;;;;4.30;3.20;;;;;;;7.93;81.45;98312.79;105360;1284;22629;-83
2022/09/02 02:48:06;;;;;;;4.80;3.10;;;;;;;7.93;81.71;98314.13;105415;1282;22701;-83
2022/09/02 02:50:34;;;;;;;4.70;2.90;;;;;;;7.91;81.99;98311.28;105345;1284;25325;-84
2022/09/02 02:53:02;;;;;;;4.20;2.90;;;;;;;7.87;82.31;98304.54;105433;1282;24250;-83
2022/09/02 02:55:30;;;;;;;7.40;3.00;;;;;;;7.86;82.81;98306.36;105396;1283;24385;-82
2022/09/02 02:57:58;;;;;;;5.80;2.80;;;;;;;7.88;82.82;98302.88;105375;1284;22584;-84
2022/09/02 03:00:29;;;;;;;3.50;3.10;;;;;;;7.91;83.50;98300.02;105418;1282;22541;-83
2022/09/02 03:03:02;;;;;;;7.00;3.40;;;;;;;7.92;83.80;98301.96;106290;1282;22893;-84
2022/09/02 03:05:32;;;;;;;6.80;3.50;;;;;;;7.92;83.63;98301.58;105405;1284;22718;-83
2022/09/02 03:08:02;;;;;;;5.90;3.20;;;;;;;7.94;83.82;98299.80;105411;1282;22672;-83
2022/09/02 03:10:33;;;;;;;7.10;3.80;;;;;;;7.97;83.79;98298.58;105363;1282;25328;-84
2022/09/02 03:13:02;;;;;;;6.20;3.40;;;;;;;8.01;83.52;98295.92;105249;1284;22550;-84
2022/09/02 03:15:30;;;;;;;4.10;3.10;;;;;;;8.04;83.31;98298.44;105390;1282;25478;-84
2022/09/02 03:17:58;;;;;;;7.90;3.50;;;;;;;8.05;83.31;98298.81;105295;1282;24416;-83
2022/09/02 03:20:27;;;;;;;4.50;3.70;;;;;;;8.04;82.82;98297.09;105283;1283;22598;-83
2022/09/02 03:22:58;;;;;;;5.60;3.10;;;;;;;8.06;82.64;98294.45;105383;1282;25364;-83
2022/09/02 03:25:29;;;;;;;4.80;2.90;;;;;;;8.13;82.47;98292.45;105414;1282;25476;-84
2022/09/02 03:28:04;;;;;;;5.50;3.80;;;;;;;8.25;82.45;98293.54;105426;1282;22721;-84
2022/09/02 03:30:33;;;;;;;6.10;3.90;;;;;;;8.34;81.97;98293.67;105395;1282;22868;-83
2022/09/02 03:33:04;;;;;;;8.70;4.20;;;;;;;8.40;82.02;98287.94;105445;1282;23856;-84
2022/09/02 03:35:38;;;;;;;9.30;4.80;;;;;;;8.45;81.63;98291.30;105358;1282;22731;-84
2022/09/02 03:38:09;;;;;;;9.70;5.30;;;;;;;8.48;81.77;98294.30;105345;1283;22543;-83
2022/09/02 03:40:38;;;;;;;7.60;4.40;;;;;;;8.54;81.76;98293.64;105392;1282;22596;-83
2022/09/02 03:43:07;;;;;;;9.20;3.90;;;;;;;8.63;81.58;98294.98;105431;1282;24422;-85
2022/09/02 03:45:40;;;;;;;7.20;3.20;;;;;;;8.70;81.25;98296.14;105344;1282;22675;-83
2022/09/02 03:48:13;;;;;;;4.70;4.10;;;;;;;8.62;81.78;98279.25;105396;1282;25421;-83
2022/09/02 03:50:46;;;;;;;5.40;3.30;;;;;;;8.73;81.42;98300.95;105065;1284;25359;-83
2022/09/02 03:53:18;;;;;;;4.80;3.30;;;;;;;8.74;81.42;98301.65;105281;1282;25366;-84
2022/09/02 03:55:50;;;;;;;7.10;4.90;;;;;;;8.75;81.22;98302.55;105363;1282;22588;-83
2022/09/02 03:58:22;;;;;;;7.50;4.60;;;;;;;8.79;81.58;98301.78;105394;1282;24228;-84
2022/09/02 04:00:53;;;;;;;6.00;4.00;;;;;;;8.85;81.28;98302.83;105399;1282;22556;-84
2022/09/02 04:03:22;;;;;;;8.60;5.50;;;;;;;8.91;81.30;98302.27;105452;1282;24255;-84
2022/09/02 04:05:51;;;;;;;8.00;4.20;;;;;;;8.97;81.45;98304.70;105336;1285;22732;-84
2022/09/02 04:08:21;;;;;;;7.10;4.30;;;;;;;8.98;81.63;98307.10;105385;1282;26622;-85
2022/09/02 04:10:49;;;;;;;8.10;4.30;;;;;;;8.99;81.51;98304.84;105433;1282;24278;-85
2022/09/02 04:13:18;;;;;;;9.60;5.30;;;;;;;9.00;81.40;98305.16;105416;1282;22699;-84
2022/09/02 04:15:48;;;;;;;8.60;5.90;;;;;;;9.03;81.40;98311.70;105427;1282;22668;-83
2022/09/02 04:18:17;;;;;;;10.20;9.00;;;;;;;9.05;81.40;98310.92;105441;1282;24197;-84
2022/09/02 04:20:45;;;;;;;10.40;6.80;;;;;;;9.07;81.44;98313.94;105434;1282;24832;-84
2022/09/02 04:23:15;;;;;;;12.50;6.10;;;;;;;9.06;81.35;98317.60;105391;1282;22563;-83
2022/09/02 04:25:44;;;;;;;13.00;6.70;;;;;;;9.05;81.51;98315.77;105398;1282;25399;-84
2022/09/02 04:28:14;;;;;;;9.40;5.60;;;;;;;9.03;81.24;98317.83;105393;1282;24283;-85
2022/09/02 04:30:42;;;;;;;10.20;6.00;;;;;;;9.03;81.17;98318.58;105391;1282;22661;-84
2022/09/02 04:33:12;;;;;;;9.30;6.40;;;;;;;9.04;81.25;98314.33;105315;1282;26497;-84
2022/09/02 04:35:45;;;;;;;12.20;6.40;;;;;;;9.04;81.41;98311.73;105250;1282;22699;-84
2022/09/02 04:38:15;;;;;;;9.90;6.50;;;;;;;9.04;81.43;98314.91;105410;1282;22629;-84
2022/09/02 04:40:45;;;;;;;16.40;6.70;;;;;;;9.04;81.51;98313.73;105445;1282;22575;-84
2022/09/02 04:43:14;;;;;;;32.30;8.20;;;;;;;9.07;81.54;98317.42;106437;1282;22639;-85
2022/09/02 04:45:45;;;;;;;21.90;6.20;;;;;;;9.16;81.67;98317.91;105347;1282;22629;-84
2022/09/02 04:48:15;;;;;;;38.00;7.80;;;;;;;9.26;81.28;98319.29;105400;1282;25475;-82
2022/09/02 04:50:44;;;;;;;17.80;6.10;;;;;;;9.35;81.53;98314.98;105374;1282;22550;-82
2022/09/02 04:53:13;;;;;;;45.90;8.80;;;;;;;9.43;81.91;98314.01;105341;1282;24959;-82
2022/09/02 04:55:42;;;;;;;42.30;9.60;;;;;;;9.50;81.52;98316.44;105367;1282;22540;-83
2022/09/02 04:58:11;;;;;;;66.00;10.10;;;;;;;9.57;81.60;98317.66;105394;1282;26508;-84
2022/09/02 05:00:41;;;;;;;22.90;6.40;;;;;;;9.65;81.75;98322.34;105415;1282;25386;-84
2022/09/02 05:03:11;;;;;;;18.60;6.20;;;;;;;9.72;81.77;98316.36;105490;1282;25472;-87
2022/09/02 05:05:41;;;;;;;12.70;5.90;;;;;;;9.81;81.91;98319.98;105477;1284;24422;-84
2022/09/02 05:08:11;;;;;;;12.90;5.30;;;;;;;9.88;81.79;98318.03;105470;1282;22582;-83
2022/09/02 05:10:40;;;;;;;10.20;5.10;;;;;;;9.98;81.62;98316.98;105437;1282;22784;-82
2022/09/02 05:13:08;;;;;;;8.70;4.50;;;;;;;10.08;81.50;98315.75;105340;1282;22891;-83
2022/09/02 05:15:39;;;;;;;8.50;5.20;;;;;;;10.20;81.54;98319.39;105283;1284;23471;-83
2022/09/02 05:18:09;;;;;;;9.50;4.60;;;;;;;10.31;81.73;98317.48;105441;1282;22553;-83
2022/09/02 05:20:41;;;;;;;9.20;4.70;;;;;;;10.42;81.92;98314.17;105434;1284;22661;-84
2022/09/02 05:23:12;;;;;;;16.20;4.80;;;;;;;10.56;81.71;98311.09;105455;1282;25370;-84
2022/09/02 05:25:41;;;;;;;23.30;7.00;;;;;;;10.68;81.58;98311.16;105437;1282;22735;-85
2022/09/02 05:28:10;;;;;;;13.00;5.10;;;;;;;10.83;81.45;98309.14;105313;1282;22715;-84
2022/09/02 05:30:41;;;;;;;8.60;4.30;;;;;;;11.01;81.40;98308.08;105265;1285;25294;-82
2022/09/02 05:33:10;;;;;;;10.20;4.20;;;;;;;11.19;81.43;98308.84;105439;1282;22541;-84
2022/09/02 05:35:43;;;;;;;10.00;5.00;;;;;;;11.35;81.26;98304.93;105425;1282;25248;-85
2022/09/02 05:38:16;;;;;;;8.70;4.70;;;;;;;11.49;81.23;98305.30;105456;1282;23983;-83
2022/09/02 05:40:45;;;;;;;7.60;4.50;;;;;;;11.60;81.01;98305.52;105339;1284;25360;-84
2022/09/02 05:43:14;;;;;;;10.40;5.30;;;;;;;11.72;80.90;98305.20;105367;1282;22554;-85
2022/09/02 05:45:43;;;;;;;7.70;5.00;;;;;;;11.82;80.62;98312.55;105420;1282;24369;-83
2022/09/02 05:50:58;;;;;;;13.50;6.70;;;;;;;12.07;80.30;98311.60;105266;1285;25261;-85
2022/09/02 05:53:27;;;;;;;14.70;5.40;;;;;;;12.21;80.19;98309.77;105389;1282;23264;-83
2022/09/02 05:55:57;;;;;;;8.20;5.40;;;;;;;12.33;79.92;98309.69;105396;1282;22698;-83
2022/09/02 05:58:25;;;;;;;7.90;4.80;;;;;;;12.43;79.77;98308.09;105320;1282;24321;-85
2022/09/02 06:00:53;;;;;;;9.50;4.20;;;;;;;12.53;79.55;98313.85;105381;1282;25285;-85
2022/09/02 06:03:21;;;;;;;14.80;4.80;;;;;;;12.62;79.36;98309.63;105172;1282;22647;-85
2022/09/02 06:05:55;;;;;;;13.70;3.90;;;;;;;12.71;79.27;98311.05;105435;1282;22616;-84
2022/09/02 06:08:24;;;;;;;6.50;3.50;;;;;;;12.80;78.97;98315.23;105590;1282;22556;-84
2022/09/02 06:10:52;;;;;;;8.80;4.30;;;;;;;12.88;79.13;98308.73;105661;1282;25346;-83
2022/09/02 06:13:21;;;;;;;8.10;3.70;;;;;;;12.98;78.73;98308.04;105582;1282;26764;-84
2022/09/02 06:15:52;;;;;;;10.20;3.60;;;;;;;13.09;78.28;98316.02;105665;1284;25240;-83
2022/09/02 06:18:23;;;;;;;7.10;3.90;;;;;;;13.22;78.53;98315.41;105208;1282;24537;-83
2022/09/02 06:20:54;;;;;;;8.60;4.30;;;;;;;13.36;78.42;98317.27;105542;1282;24217;-83
2022/09/02 06:23:22;;;;;;;9.30;3.40;;;;;;;13.48;78.19;98313.00;106400;1282;23732;-83
2022/09/02 06:25:51;;;;;;;5.50;3.70;;;;;;;13.58;77.81;98316.39;105550;1282;22690;-84
2022/09/02 06:28:20;;;;;;;8.50;3.70;;;;;;;13.66;77.67;98317.87;105560;1282;24321;-84
2022/09/02 06:30:48;;;;;;;6.20;3.70;;;;;;;13.77;77.43;98316.83;105449;1282;22699;-84
2022/09/02 06:33:18;;;;;;;12.00;3.90;;;;;;;13.89;77.03;98318.91;105633;1282;22540;-85
2022/09/02 06:35:48;;;;;;;10.40;4.40;;;;;;;13.99;76.91;98320.66;105645;1282;22618;-84
2022/09/02 06:38:18;;;;;;;7.50;4.30;;;;;;;14.11;76.75;98325.34;105673;1282;25530;-83
2022/09/02 06:40:54;;;;;;;10.60;4.50;;;;;;;14.21;76.64;98324.91;105615;1282;24659;-83
2022/09/02 06:43:32;;;;;;;9.80;4.10;;;;;;;14.28;76.10;98324.40;105460;1282;22755;-85
2022/09/02 06:46:22;;;;;;;12.90;5.00;;;;;;;14.35;75.78;98324.97;105435;1282;22545;-84
2022/09/02 06:48:52;;;;;;;9.30;4.50;;;;;;;14.43;75.70;98323.41;105360;1282;22812;-84
2022/09/02 06:51:29;;;;;;;7.80;3.90;;;;;;;14.55;75.73;98326.80;105476;1282;25602;-85
2022/09/02 06:53:59;;;;;;;11.60;3.90;;;;;;;14.68;75.61;98325.12;105510;1283;25350;-87
2022/09/02 06:56:30;;;;;;;9.70;3.90;;;;;;;14.82;75.63;98322.34;105478;1282;22815;-87
2022/09/02 06:58:58;;;;;;;10.60;3.80;;;;;;;14.96;75.53;98323.61;105674;1282;24706;-88
2022/09/02 07:01:42;;;;;;;6.20;3.30;;;;;;;15.16;75.91;98319.73;106913;1282;22537;-93
2022/09/02 07:06:57;;;;;;;6.60;3.30;;;;;;;15.99;74.98;98322.61;106798;1284;23913;-92
2022/09/02 07:09:29;;;;;;;7.80;3.00;;;;;;;16.35;74.83;98324.88;105946;1282;22625;-86
2022/09/02 07:12:02;;;;;;;7.80;3.60;;;;;;;16.63;74.06;98320.63;106205;1282;22814;-93
2022/09/02 07:14:38;;;;;;;4.80;2.80;;;;;;;16.91;73.35;98324.73;107143;1282;23972;-93
2022/09/02 07:17:11;;;;;;;6.10;3.00;;;;;;;17.23;72.80;98326.95;106457;1284;22563;-89
2022/09/02 07:19:39;;;;;;;6.20;3.10;;;;;;;17.40;71.90;98323.01;106101;1284;22575;-90
2022/09/02 07:22:08;;;;;;;7.90;3.00;;;;;;;17.62;71.77;98323.11;106052;1282;23362;-90
2022/09/02 07:24:41;;;;;;;7.90;3.50;;;;;;;17.79;70.74;98328.46;106087;1284;22572;-92
2022/09/02 07:27:11;;;;;;;7.40;2.70;;;;;;;17.84;70.47;98326.85;106571;1284;25365;-90
2022/09/02 07:29:42;;;;;;;6.60;2.90;;;;;;;17.90;70.39;98328.95;106557;1284;24023;-91
2022/09/02 07:32:11;;;;;;;9.10;2.50;;;;;;;17.97;69.96;98324.27;107076;1284;22566;-90
2022/09/02 07:34:41;;;;;;;4.90;2.50;;;;;;;18.04;68.34;98331.36;107660;1284;22619;-90
2022/09/02 07:37:11;;;;;;;6.60;2.40;;;;;;;18.11;68.83;98327.10;107760;1284;23365;-91
2022/09/02 07:39:44;;;;;;;6.70;2.70;;;;;;;18.14;67.22;98325.95;107097;1284;22555;-90
2022/09/02 07:42:15;;;;;;;16.00;3.20;;;;;;;18.16;67.80;98330.23;106411;1284;25893;-90
2022/09/02 07:44:43;;;;;;;11.80;2.80;;;;;;;18.23;66.91;98328.58;106274;1284;22733;-89
2022/09/02 07:47:13;;;;;;;6.20;3.00;;;;;;;18.28;67.30;98326.41;105727;1284;22497;-80
2022/09/02 07:49:42;;;;;;;3.30;2.10;;;;;;;18.33;65.80;98331.35;105528;1284;24388;-89
2022/09/02 07:52:30;;;;;;;4.10;2.70;;;;;;;18.35;64.92;98334.59;105607;1284;22740;-90
2022/09/02 07:54:58;;;;;;;7.00;2.90;;;;;;;18.30;63.58;98337.33;105206;1285;25316;-89
2022/09/02 07:57:28;;;;;;;3.90;2.10;;;;;;;18.24;63.45;98333.22;105537;1284;24454;-86
2022/09/02 07:59:56;;;;;;;8.40;2.60;;;;;;;18.17;63.47;98334.55;106146;1284;25361;-89
2022/09/02 08:02:25;;;;;;;4.20;2.30;;;;;;;18.22;63.59;98334.14;107522;1284;22630;-89
2022/09/02 08:04:54;;;;;;;7.40;2.60;;;;;;;18.26;62.59;98331.88;108986;1270;22560;-85
2022/09/02 08:07:23;;;;;;;5.00;2.20;;;;;;;18.30;62.46;98329.11;108835;1282;22846;-91
2022/09/02 08:09:51;;;;;;;3.80;2.30;;;;;;;18.36;61.28;98325.59;108403;1282;23481;-84
2022/09/02 08:12:19;;;;;;;6.60;2.30;;;;;;;18.41;60.80;98327.55;108985;1282;22541;-85
2022/09/02 08:14:49;;;;;;;3.30;2.30;;;;;;;18.54;60.33;98326.63;108947;1282;22595;-92
2022/09/02 08:17:18;;;;;;;3.10;2.00;;;;;;;18.62;60.10;98322.68;108489;1282;23451;-87
2022/09/02 08:19:46;;;;;;;4.50;2.40;;;;;;;18.72;59.55;98327.92;108386;1282;22666;-84
2022/09/02 08:22:14;;;;;;;10.90;2.60;;;;;;;18.86;59.05;98331.50;108333;1282;22540;-95
2022/09/02 08:24:50;;;;;;;3.50;2.20;;;;;;;18.93;58.19;98332.17;109125;1270;23284;31
2022/09/02 08:27:20;;;;;;;3.30;2.00;;;;;;;18.96;58.67;98332.29;107583;1271;23966;-92
2022/09/02 08:29:48;;;;;;;4.00;2.20;;;;;;;18.99;58.71;98334.16;109018;1281;22544;-93
2022/09/02 08:32:17;;;;;;;4.10;2.20;;;;;;;19.04;58.01;98330.83;108800;1281;22686;-94
2022/09/02 08:34:45;;;;;;;6.30;2.30;;;;;;;19.17;58.02;98329.23;108603;1282;22653;-91
2022/09/02 08:37:13;;;;;;;4.80;2.30;;;;;;;19.22;57.25;98332.77;108571;1281;22703;-92
2022/09/02 08:39:41;;;;;;;4.70;2.30;;;;;;;19.33;57.54;98323.33;108186;1281;24310;-93
2022/09/02 08:42:30;;;;;;;5.00;2.10;;;;;;;19.44;56.89;98327.23;108085;1281;22568;-88
2022/09/02 08:47:46;;;;;;;6.50;2.00;;;;;;;19.63;56.54;98322.60;108739;1281;23128;-86
2022/09/02 08:50:17;;;;;;;3.10;2.00;;;;;;;19.68;55.73;98320.74;108676;1281;22661;-91
2022/09/02 08:52:57;;;;;;;4.80;1.70;;;;;;;19.70;55.42;98319.95;109030;1269;22697;-88
2022/09/02 08:55:34;;;;;;;1.80;1.60;;;;;;;19.75;54.38;98318.44;106014;1281;22898;-86
2022/09/02 08:58:02;;;;;;;5.60;1.80;;;;;;;19.66;53.91;98320.36;106383;1281;25917;-85
2022/09/02 09:04:14;;;;;;;2.80;1.30;;;;;;;19.41;53.51;98318.30;106856;1283;22543;-86
2022/09/02 09:06:55;;;;;;;3.30;1.50;;;;;;;19.18;53.54;98324.03;105247;1282;23125;-90
2022/09/02 09:09:59;;;;;;;1.40;1.30;;;;;;;19.00;52.63;98322.48;105327;1282;25364;-88
2022/09/02 09:12:39;;;;;;;1.90;1.50;;;;;;;18.74;52.41;98318.62;106133;1282;22483;-89
2022/09/02 09:15:19;;;;;;;3.70;1.50;;;;;;;18.55;52.82;98321.52;105690;1283;22575;-91
2022/09/02 09:18:00;;;;;;;2.00;1.50;;;;;;;18.45;52.30;98315.13;105260;1284;22884;-86
2022/09/02 09:20:46;;;;;;;5.50;1.50;;;;;;;18.37;51.06;98318.60;105530;1284;22751;-86
2022/09/02 09:23:32;;;;;;;3.10;1.60;;;;;;;18.22;51.61;98317.71;105892;1284;22566;-85
2022/09/02 09:26:10;;;;;;;4.70;1.60;;;;;;;18.10;50.96;98315.62;105522;1284;25368;-86
2022/09/02 09:28:43;;;;;;;3.20;1.70;;;;;;;17.98;50.30;98315.51;105954;1284;24227;-87
2022/09/02 09:31:28;;;;;;;6.30;1.80;;;;;;;17.82;50.40;98308.71;106121;1284;22721;-86
2022/09/02 09:34:06;;;;;;;2.10;1.50;;;;;;;17.95;50.72;98314.60;105863;1284;22557;-86
2022/09/02 09:36:54;;;;;;;2.60;1.50;;;;;;;18.25;49.18;98307.77;105876;1284;23192;-85
2022/09/02 09:39:28;;;;;;;8.80;1.90;;;;;;;18.54;48.28;98310.98;105846;1284;24271;-84
2022/09/02 09:42:02;;;;;;;2.90;2.00;;;;;;;18.57;47.79;98314.20;105516;1284;25400;-85
2022/09/02 09:44:46;;;;;;;3.60;1.70;;;;;;;18.50;48.74;98315.52;105255;1285;22732;-83
2022/09/02 09:47:21;;;;;;;2.70;1.60;;;;;;;18.36;46.91;98312.89;105334;1284;25313;-83
2022/09/02 09:50:10;;;;;;;2.20;1.70;;;;;;;18.15;48.23;98309.93;105465;1284;24131;-84
2022/09/02 09:52:38;;;;;;;2.50;1.60;;;;;;;18.14;48.76;98303.21;104580;1284;1469478;-86
2022/09/02 09:55:13;;;;;;;3.70;1.80;;;;;;;18.27;48.52;98299.81;105453;1284;25229;-87
2022/09/02 09:57:45;;;;;;;3.20;1.80;;;;;;;18.52;48.38;98294.29;105336;1284;25323;-87
2022/09/02 10:00:32;;;;;;;4.20;1.80;;;;;;;18.84;48.46;98292.12;105363;1284;23944;-87
2022/09/02 10:03:03;;;;;;;4.00;1.90;;;;;;;19.23;48.16;98292.58;105368;1284;23406;-87
2022/09/02 10:05:35;;;;;;;3.60;1.50;;;;;;;19.53;48.03;98288.04;105440;1284;22567;-86
2022/09/02 10:08:17;;;;;;;3.20;1.60;;;;;;;19.75;47.25;98283.20;105494;1284;22561;-86
2022/09/02 10:10:56;;;;;;;2.50;1.50;;;;;;;19.77;46.29;98281.92;105477;1284;22729;-87
2022/09/02 10:13:30;;;;;;;2.20;1.60;;;;;;;19.90;46.11;98285.85;105822;1282;22565;-86
2022/09/02 10:15:58;;;;;;;;;;;;;;;20.09;45.84;98282.27;105889;1282;23245;-85
2022/09/02 10:18:30;;;;;;;5.10;1.50;;;;;;;20.07;46.36;98283.49;105795;1282;22575;-87
2022/09/02 10:21:09;;;;;;;4.00;1.60;;;;;;;20.06;46.28;98280.17;106032;1282;22701;-87
2022/09/02 10:23:52;;;;;;;3.70;1.70;;;;;;;20.22;45.33;98277.60;105583;1282;24099;-87
2022/09/02 10:26:37;;;;;;;2.10;1.80;;;;;;;20.38;43.94;98275.50;106018;1282;22555;-88
2022/09/02 10:29:20;;;;;;;4.90;2.60;;;;;;;20.61;44.48;98271.84;105837;1282;22583;-83
2022/09/02 10:31:54;;;;;;;4.50;2.90;;;;;;;20.89;44.09;98266.13;105647;1282;22694;-82
2022/09/02 10:34:22;;;;;;;;;;;;;;;21.06;41.83;98259.70;105647;1284;25371;-86
2022/09/02 10:37:15;;;;;;;2.20;1.90;;;;;;;21.11;43.14;98259.10;105858;1284;22622;-89
2022/09/02 10:39:46;;;;;;;4.50;1.80;;;;;;;21.36;42.71;98254.82;105617;1284;22572;-89
2022/09/02 10:42:42;;;;;;;3.30;1.40;;;;;;;21.54;42.74;98262.34;105908;1284;25656;-87
2022/09/02 10:45:18;;;;;;;2.20;1.30;;;;;;;21.66;41.38;98259.42;105599;1284;24269;-89
2022/09/02 10:48:06;;;;;;;3.00;1.60;;;;;;;21.59;41.91;98259.70;105318;1284;25362;-87
2022/09/02 10:50:54;;;;;;;2.20;1.40;;;;;;;21.59;41.75;98258.59;105463;1284;22743;-89
2022/09/02 10:53:43;;;;;;;4.00;1.60;;;;;;;21.53;41.09;98262.70;105628;1284;24421;-89
2022/09/02 10:56:17;;;;;;;2.50;1.40;;;;;;;21.42;41.66;98265.69;105737;1287;25315;-89
2022/09/02 10:59:09;;;;;;;4.20;1.40;;;;;;;21.40;40.71;98260.73;105825;1287;22666;-88
2022/09/02 11:01:45;;;;;;;2.40;1.30;;;;;;;21.17;40.72;98257.50;105923;1285;24358;-89
2022/09/02 11:04:32;;;;;;;2.00;1.20;;;;;;;20.91;40.31;98256.77;105566;1285;25390;-88
2022/09/02 11:07:03;;;;;;;2.40;1.40;;;;;;;20.57;40.64;98256.33;105339;1285;25405;-87
2022/09/02 11:09:36;;;;;;;3.60;1.30;;;;;;;20.36;40.70;98258.80;105378;1285;24251;-87
2022/09/02 11:12:32;;;;;;;2.90;1.50;;;;;;;20.14;40.95;98256.84;106000;1285;22619;-87
2022/09/02 11:15:24;;;;;;;1.50;1.40;;;;;;;19.92;41.07;98259.76;105058;1288;25256;-89
2022/09/02 11:18:03;;;;;;;2.70;1.50;;;;;;;19.89;41.24;98255.70;105356;1285;22655;-89
2022/09/02 11:20:37;;;;;;;1.80;1.60;;;;;;;20.22;41.34;98252.43;105662;1285;26710;-89
2022/09/02 11:23:11;;;;;;;;;;;;;;;20.65;40.72;98253.92;105948;1285;22690;-89
2022/09/02 11:25:51;;;;;;;4.00;1.80;;;;;;;21.00;41.08;98246.27;105435;1285;22572;-88
2022/09/02 11:28:42;;;;;;;4.60;1.40;;;;;;;21.30;40.36;98248.38;105646;1284;22587;-88
2022/09/02 11:31:37;;;;;;;2.60;1.30;;;;;;;21.61;39.90;98243.80;105704;1284;22541;-88
2022/09/02 11:34:18;;;;;;;3.20;1.40;;;;;;;22.02;39.72;98243.86;105780;1284;24092;-89
2022/09/02 11:36:48;;;;;;;2.70;1.40;;;;;;;22.07;39.10;98240.16;105792;1284;22842;-89
2022/09/02 11:39:47;;;;;;;4.50;1.60;;;;;;;21.86;38.16;98238.80;105552;1284;24222;-89
2022/09/02 11:42:41;;;;;;;3.30;1.50;;;;;;;21.63;37.77;98240.16;105988;1284;25470;-87
2022/09/02 11:45:37;;;;;;;3.70;1.70;;;;;;;21.33;38.73;98241.92;105845;1284;26241;-88
2022/09/02 11:48:35;;;;;;;2.50;1.30;;;;;;;21.07;39.12;98242.02;105847;1284;26640;-85
2022/09/02 11:51:22;;;;;;;7.30;1.50;;;;;;;20.92;39.21;98242.17;105843;1284;22631;-87
2022/09/02 11:53:56;;;;;;;2.50;1.60;;;;;;;20.77;39.50;98244.98;105609;1284;24709;-86
2022/09/02 11:56:29;;;;;;;2.80;1.50;;;;;;;20.68;39.36;98248.38;105890;1284;24344;-88
2022/09/02 11:58:57;;;;;;;4.70;1.60;;;;;;;20.58;39.18;98250.17;105908;1284;24195;-86
2022/09/02 12:01:34;;;;;;;1.30;1.20;;;;;;;20.39;38.98;98252.07;105637;1284;23351;-87
2022/09/02 12:04:10;;;;;;;5.10;1.70;;;;;;;20.27;39.36;98248.18;105564;1284;22563;-88